createdAt,value
2024-03-11T00:00:19.730Z,9.83
2024-03-11T00:02:47.204Z,9.74
2024-03-11T00:05:16.647Z,9.87
2024-03-11T00:07:46.584Z,9.84
2024-03-11T00:10:14.341Z,9.69
2024-03-11T00:12:51.229Z,9.84
2024-03-11T00:15:22.455Z,9.82
2024-03-11T00:17:50.564Z,9.77
2024-03-11T00:20:18.759Z,9.79
2024-03-11T00:22:46.388Z,9.78
2024-03-11T00:25:13.940Z,9.80
2024-03-11T00:27:41.003Z,9.79
2024-03-11T00:30:12.195Z,9.80
2024-03-11T00:32:49.061Z,9.66
2024-03-11T00:35:17.100Z,9.70
2024-03-11T00:37:45.390Z,9.75
2024-03-11T00:40:14.133Z,9.53
2024-03-11T00:42:41.027Z,9.78
2024-03-11T00:45:12.977Z,9.48
2024-03-11T00:47:43.268Z,9.57
2024-03-11T00:50:12.178Z,9.66
2024-03-11T00:52:39.918Z,9.69
2024-03-11T00:55:08.900Z,9.69
2024-03-11T00:57:39.952Z,9.71
2024-03-11T01:00:15.465Z,9.68
2024-03-11T01:02:43.400Z,9.67
2024-03-11T01:05:11.411Z,9.71
2024-03-11T01:07:45.597Z,9.69
2024-03-11T01:10:17.885Z,9.71
2024-03-11T01:12:45.524Z,9.68
2024-03-11T01:15:13.029Z,9.69
2024-03-11T01:17:40.743Z,9.58
2024-03-11T01:20:12.568Z,9.65
2024-03-11T01:22:41.521Z,9.60
2024-03-11T01:25:10.415Z,9.64
2024-03-11T01:27:37.859Z,9.69
2024-03-11T01:30:05.529Z,9.66
2024-03-11T01:32:32.671Z,9.67
2024-03-11T01:35:01.296Z,9.51
2024-03-11T01:37:28.415Z,9.65
2024-03-11T01:39:56.680Z,9.66
2024-03-11T01:42:24.455Z,9.63
2024-03-11T01:44:53.198Z,9.60
2024-03-11T01:47:26.241Z,9.62
2024-03-11T01:49:55.912Z,9.61
2024-03-11T01:52:29.217Z,9.48
2024-03-11T01:54:57.410Z,9.35
2024-03-11T01:57:28.420Z,9.45
2024-03-11T01:59:55.816Z,9.46
2024-03-11T02:02:23.231Z,9.46
2024-03-11T02:04:51.093Z,9.47
2024-03-11T02:07:19.738Z,9.34
2024-03-11T02:09:46.612Z,9.42
2024-03-11T02:12:15.439Z,9.38
2024-03-11T02:14:42.533Z,9.29
2024-03-11T02:17:10.083Z,8.86
2024-03-11T02:19:38.638Z,9.03
2024-03-11T02:22:05.621Z,9.16
2024-03-11T02:24:32.568Z,9.22
2024-03-11T02:26:59.595Z,9.26
2024-03-11T02:29:26.584Z,8.71
2024-03-11T02:31:55.876Z,8.89
2024-03-11T02:34:22.868Z,8.94
2024-03-11T02:36:55.120Z,9.05
2024-03-11T02:39:22.410Z,9.14
2024-03-11T02:41:52.593Z,9.13
2024-03-11T02:44:19.644Z,9.13
2024-03-11T02:46:46.942Z,9.14
2024-03-11T02:49:14.553Z,9.15
2024-03-11T02:51:43.459Z,9.12
2024-03-11T02:54:10.777Z,9.00
2024-03-11T02:56:38.461Z,8.99
2024-03-11T02:59:05.871Z,9.09
2024-03-11T03:01:32.956Z,9.03
2024-03-11T03:04:00.243Z,8.91
2024-03-11T03:06:28.905Z,9.02
2024-03-11T03:08:56.273Z,9.02
2024-03-11T03:11:23.447Z,8.98
2024-03-11T03:13:51.505Z,9.00
2024-03-11T03:16:18.553Z,8.93
2024-03-11T03:18:45.440Z,8.66
2024-03-11T03:21:12.296Z,8.49
2024-03-11T03:23:39.266Z,8.71
2024-03-11T03:26:06.587Z,8.78
2024-03-11T03:28:33.598Z,8.78
2024-03-11T03:31:00.564Z,8.67
2024-03-11T03:33:29.164Z,8.28
2024-03-11T03:35:56.866Z,8.62
2024-03-11T03:38:24.010Z,8.65
2024-03-11T03:40:51.302Z,8.63
2024-03-11T03:43:18.188Z,8.63
2024-03-11T03:45:45.941Z,8.62
2024-03-11T03:48:13.296Z,8.54
2024-03-11T03:50:40.738Z,8.29
2024-03-11T03:53:10.069Z,8.50
2024-03-11T03:55:38.875Z,8.42
2024-03-11T03:58:06.426Z,8.44
2024-03-11T04:00:36.433Z,8.45
2024-03-11T04:03:06.527Z,8.48
2024-03-11T04:05:33.916Z,8.47
2024-03-11T04:08:01.631Z,8.44
2024-03-11T04:10:29.738Z,8.42
2024-03-11T04:12:59.397Z,8.39
2024-03-11T04:15:26.721Z,8.25
2024-03-11T04:17:55.738Z,8.32
2024-03-11T04:20:28.809Z,8.33
2024-03-11T04:22:57.212Z,8.34
2024-03-11T04:25:28.292Z,8.30
2024-03-11T04:27:57.029Z,8.32
2024-03-11T04:30:31.741Z,8.29
2024-03-11T04:33:00.039Z,8.15
2024-03-11T04:35:32.736Z,8.24
2024-03-11T04:38:05.479Z,8.20
2024-03-11T04:40:39.562Z,8.16
2024-03-11T04:43:06.946Z,8.14
2024-03-11T04:45:36.738Z,8.13
2024-03-11T04:48:06.344Z,8.10
2024-03-11T04:50:39.485Z,7.93
2024-03-11T04:53:08.984Z,8.04
2024-03-11T04:55:38.054Z,8.02
2024-03-11T04:58:05.508Z,7.98
2024-03-11T05:00:33.759Z,7.79
2024-03-11T05:03:04.359Z,7.95
2024-03-11T05:05:34.299Z,7.84
2024-03-11T05:08:01.719Z,7.84
2024-03-11T05:10:28.584Z,7.83
2024-03-11T05:12:55.491Z,7.80
2024-03-11T05:15:23.016Z,7.81
2024-03-11T05:17:50.946Z,7.81
2024-03-11T05:20:20.565Z,7.80
2024-03-11T05:22:51.437Z,7.76
2024-03-11T05:25:19.224Z,7.78
2024-03-11T05:27:52.704Z,7.74
2024-03-11T05:30:20.360Z,7.54
2024-03-11T05:32:48.483Z,7.69
2024-03-11T05:35:16.397Z,7.70
2024-03-11T05:37:44.622Z,7.63
2024-03-11T05:40:15.196Z,7.58
2024-03-11T05:42:42.928Z,7.59
2024-03-11T05:45:11.691Z,7.57
2024-03-11T05:47:39.220Z,7.50
2024-03-11T05:50:07.069Z,7.51
2024-03-11T05:52:34.470Z,7.47
2024-03-11T05:55:04.763Z,7.49
2024-03-11T05:57:37.488Z,7.49
2024-03-11T06:00:10.693Z,7.37
2024-03-11T06:02:38.683Z,7.48
2024-03-11T06:05:07.016Z,7.44
2024-03-11T06:07:34.862Z,7.46
2024-03-11T06:10:02.547Z,7.29
2024-03-11T06:12:30.343Z,7.47
2024-03-11T06:14:57.773Z,7.52
2024-03-11T06:17:24.860Z,7.08
2024-03-11T06:19:52.831Z,7.31
2024-03-11T06:22:20.229Z,7.39
2024-03-11T06:24:47.280Z,7.46
2024-03-11T06:27:15.876Z,7.49
2024-03-11T06:29:43.822Z,7.50
2024-03-11T06:32:12.060Z,7.54
2024-03-11T06:34:39.074Z,7.33
2024-03-11T06:37:06.216Z,7.53
2024-03-11T06:39:34.295Z,7.52
2024-03-11T06:42:02.778Z,7.51
2024-03-11T06:44:38.595Z,7.52
2024-03-11T06:47:12.912Z,7.54
2024-03-11T06:49:40.395Z,7.52
2024-03-11T06:52:08.748Z,7.56
2024-03-11T06:54:37.725Z,7.63
2024-03-11T06:57:07.261Z,7.62
2024-03-11T06:59:35.068Z,7.66
2024-03-11T07:02:02.555Z,7.57
2024-03-11T07:04:29.493Z,7.68
2024-03-11T07:06:57.673Z,7.65
2024-03-11T07:09:26.825Z,7.69
2024-03-11T07:11:53.809Z,7.67
2024-03-11T07:14:21.258Z,7.77
2024-03-11T07:16:48.164Z,7.80
2024-03-11T07:19:15.154Z,7.76
2024-03-11T07:21:42.100Z,7.72
2024-03-11T07:24:10.607Z,7.57
2024-03-11T07:26:40.006Z,7.87
2024-03-11T07:29:07.397Z,7.94
2024-03-11T07:31:34.581Z,7.95
2024-03-11T07:34:01.410Z,8.00
2024-03-11T07:36:28.356Z,8.03
2024-03-11T07:38:55.998Z,8.07
2024-03-11T07:41:26.074Z,8.11
2024-03-11T07:43:53.563Z,8.11
2024-03-11T07:46:20.978Z,8.17
2024-03-11T07:48:47.907Z,8.21
2024-03-11T07:51:15.051Z,8.22
2024-03-11T07:53:42.106Z,8.28
2024-03-11T07:56:10.520Z,8.30
2024-03-11T07:58:37.848Z,8.33
2024-03-11T08:01:05.403Z,8.38
2024-03-11T08:03:32.481Z,8.39
2024-03-11T08:06:00.085Z,8.26
2024-03-11T08:08:27.925Z,8.46
2024-03-11T08:10:55.424Z,8.49
2024-03-11T08:13:22.805Z,8.52
2024-03-11T08:15:50.517Z,8.53
2024-03-11T08:18:17.986Z,8.58
2024-03-11T08:20:45.228Z,8.50
2024-03-11T08:23:12.366Z,8.62
2024-03-11T08:25:45.935Z,8.64
2024-03-11T08:28:16.189Z,8.67
2024-03-11T08:30:44.922Z,8.71
2024-03-11T08:33:13.872Z,8.74
2024-03-11T08:35:42.974Z,8.73
2024-03-11T08:38:09.964Z,8.77
2024-03-11T08:40:39.503Z,8.80
2024-03-11T08:43:06.691Z,8.86
2024-03-11T08:45:34.358Z,8.87
2024-03-11T08:48:01.551Z,8.82
2024-03-11T08:50:28.834Z,8.90
2024-03-11T08:52:55.935Z,8.91
2024-03-11T08:55:22.965Z,8.89
2024-03-11T08:57:50.869Z,8.97
2024-03-11T09:00:19.389Z,8.99
2024-03-11T09:02:47.101Z,9.02
2024-03-11T09:05:18.406Z,8.98
2024-03-11T09:07:47.115Z,9.01
2024-03-11T09:10:18.188Z,9.12
2024-03-11T09:12:46.602Z,9.16
2024-03-11T09:15:17.440Z,9.21
2024-03-11T09:17:49.683Z,9.28
2024-03-11T09:20:17.685Z,9.28
2024-03-11T09:22:53.302Z,9.35
2024-03-11T09:25:27.589Z,9.47
2024-03-11T09:28:03.908Z,9.48
2024-03-11T09:30:34.758Z,9.59
2024-03-11T09:33:03.388Z,9.56
2024-03-11T09:35:31.142Z,9.60
2024-03-11T09:37:59.530Z,9.89
2024-03-11T09:40:30.899Z,9.98
2024-03-11T09:43:02.829Z,9.89
2024-03-11T09:45:32.153Z,10.08
2024-03-11T09:48:02.150Z,10.19
2024-03-11T09:50:32.404Z,10.29
2024-03-11T09:53:07.856Z,10.33
2024-03-11T09:55:35.661Z,10.38
2024-03-11T09:58:08.828Z,10.40
2024-03-11T10:00:43.487Z,10.50
2024-03-11T10:03:14.864Z,10.45
2024-03-11T10:05:46.078Z,10.62
2024-03-11T10:08:19.234Z,10.68
2024-03-11T10:11:12.942Z,10.74
2024-03-11T10:13:40.493Z,11.02
2024-03-11T10:16:19.526Z,11.09
2024-03-11T10:19:17.385Z,11.06
2024-03-11T10:21:45.749Z,11.15
2024-03-11T10:24:16.210Z,11.14
2024-03-11T10:26:44.036Z,11.19
2024-03-11T10:29:17.825Z,11.18
2024-03-11T10:31:46.970Z,11.08
2024-03-11T10:34:22.832Z,11.19
2024-03-11T10:37:03.153Z,11.35
2024-03-11T10:39:42.714Z,11.39
2024-03-11T10:42:14.085Z,11.42
2024-03-11T10:44:41.712Z,11.47
2024-03-11T10:47:17.060Z,11.42
2024-03-11T10:49:51.332Z,11.44
2024-03-11T10:52:26.601Z,11.73
2024-03-11T10:55:07.781Z,11.89
2024-03-11T10:57:45.888Z,11.99
2024-03-11T11:00:17.693Z,11.86
2024-03-11T11:02:47.118Z,11.86
2024-03-11T11:05:25.184Z,11.84
2024-03-11T11:07:56.963Z,11.75
2024-03-11T11:10:31.604Z,11.78
2024-03-11T11:13:02.677Z,11.70
2024-03-11T11:15:30.967Z,11.71
2024-03-11T11:17:59.110Z,11.30
2024-03-11T11:20:39.068Z,11.80
2024-03-11T11:23:06.549Z,11.70
2024-03-11T11:25:43.728Z,11.72
2024-03-11T11:28:25.885Z,11.76
2024-03-11T11:31:29.579Z,11.69
2024-03-11T11:34:06.142Z,11.85
2024-03-11T11:36:33.374Z,11.96
2024-03-11T11:39:15.874Z,11.99
2024-03-11T11:41:54.620Z,11.98
2024-03-11T11:44:30.274Z,12.08
2024-03-11T11:47:16.871Z,12.28
2024-03-11T11:49:48.475Z,12.28
2024-03-11T11:52:15.914Z,12.30
2024-03-11T11:54:44.262Z,12.22
2024-03-11T11:57:20.371Z,12.18
2024-03-11T11:59:56.758Z,12.27
2024-03-11T12:02:30.901Z,12.28
2024-03-11T12:05:04.153Z,12.43
2024-03-11T12:07:39.154Z,12.56
2024-03-11T12:10:08.799Z,12.81
2024-03-11T12:12:49.600Z,12.73
2024-03-11T12:15:26.438Z,12.83
2024-03-11T12:17:59.093Z,12.79
2024-03-11T12:20:27.279Z,12.79
2024-03-11T12:22:56.468Z,12.73
2024-03-11T12:25:24.642Z,12.68
2024-03-11T12:28:05.161Z,12.71
2024-03-11T12:30:39.436Z,12.64
2024-03-11T12:33:10.147Z,12.67
2024-03-11T12:35:44.766Z,12.73
2024-03-11T12:38:14.941Z,12.72
2024-03-11T12:40:48.561Z,12.66
2024-03-11T12:43:24.978Z,12.66
2024-03-11T12:46:02.215Z,12.73
2024-03-11T12:48:30.956Z,12.77
2024-03-11T12:51:00.067Z,12.84
2024-03-11T12:53:32.729Z,12.80
2024-03-11T12:56:05.715Z,12.87
2024-03-11T12:58:40.594Z,12.76
2024-03-11T13:01:17.986Z,12.78
2024-03-11T13:03:47.744Z,12.78
2024-03-11T13:06:21.240Z,12.78
2024-03-11T13:08:50.981Z,12.72
2024-03-11T13:11:18.445Z,12.74
2024-03-11T13:13:45.822Z,12.71
2024-03-11T13:16:18.579Z,12.76
2024-03-11T13:18:49.911Z,12.78
2024-03-11T13:21:21.611Z,12.88
2024-03-11T13:23:49.398Z,12.87
2024-03-11T13:26:17.511Z,12.85
2024-03-11T13:28:44.709Z,12.84
2024-03-11T13:31:13.987Z,12.83
2024-03-11T13:33:43.406Z,12.81
2024-03-11T13:36:10.985Z,12.81
2024-03-11T13:38:38.321Z,12.85
2024-03-11T13:41:06.792Z,12.84
2024-03-11T13:43:34.303Z,12.72
2024-03-11T13:46:02.085Z,12.83
2024-03-11T13:48:29.661Z,12.86
2024-03-11T13:50:58.317Z,12.90
2024-03-11T13:53:25.878Z,12.92
2024-03-11T13:55:53.138Z,12.86
2024-03-11T13:58:21.001Z,12.82
2024-03-11T14:00:50.822Z,12.70
2024-03-11T14:03:21.187Z,12.83
2024-03-11T14:05:48.364Z,12.82
2024-03-11T14:08:15.375Z,12.82
2024-03-11T14:10:44.382Z,12.82
2024-03-11T14:13:13.121Z,12.87
2024-03-11T14:15:40.295Z,12.85
2024-03-11T14:18:07.450Z,12.92
2024-03-11T14:20:34.552Z,12.88
2024-03-11T14:23:01.939Z,12.87
2024-03-11T14:25:34.045Z,12.78
2024-03-11T14:28:01.228Z,12.82
2024-03-11T14:30:35.403Z,12.79
2024-03-11T14:33:07.843Z,12.76
2024-03-11T14:35:34.967Z,12.69
2024-03-11T14:38:02.082Z,12.70
2024-03-11T14:40:33.629Z,12.65
2024-03-11T14:43:02.476Z,12.68
2024-03-11T14:45:34.802Z,12.70
2024-03-11T14:48:03.007Z,12.58
2024-03-11T14:50:30.992Z,12.82
2024-03-11T14:53:01.501Z,12.89
2024-03-11T14:55:37.688Z,12.97
2024-03-11T14:58:09.085Z,13.00
2024-03-11T15:00:37.535Z,12.92
2024-03-11T15:03:07.641Z,12.89
2024-03-11T15:05:40.984Z,12.90
2024-03-11T15:08:09.058Z,12.90
2024-03-11T15:10:36.292Z,12.86
2024-03-11T15:13:05.599Z,12.83
2024-03-11T15:15:33.400Z,12.84
2024-03-11T15:18:01.662Z,12.83
2024-03-11T15:20:30.092Z,12.78
2024-03-11T15:22:57.953Z,12.80
2024-03-11T15:25:26.271Z,12.78
2024-03-11T15:27:54.488Z,12.70
2024-03-11T15:30:28.010Z,12.72
2024-03-11T15:32:55.973Z,12.76
2024-03-11T15:35:23.418Z,12.71
2024-03-11T15:37:50.262Z,12.75
2024-03-11T15:40:17.525Z,12.75
2024-03-11T15:42:45.247Z,12.71
2024-03-11T15:45:15.126Z,12.74
2024-03-11T15:47:42.806Z,12.85
2024-03-11T15:50:20.368Z,12.95
2024-03-11T15:52:50.960Z,12.90
2024-03-11T15:55:18.479Z,12.89
2024-03-11T15:57:45.548Z,12.84
2024-03-11T16:00:20.053Z,12.87
2024-03-11T16:02:48.037Z,12.86
2024-03-11T16:05:18.997Z,12.84
2024-03-11T16:07:47.926Z,12.81
2024-03-11T16:10:19.375Z,12.79
2024-03-11T16:12:53.013Z,12.75
2024-03-11T16:15:23.654Z,12.74
2024-03-11T16:17:52.979Z,12.73
2024-03-11T16:20:20.667Z,12.72
2024-03-11T16:22:48.350Z,12.68
2024-03-11T16:25:17.476Z,12.65
2024-03-11T16:27:47.772Z,12.64
2024-03-11T16:30:16.423Z,12.53
2024-03-11T16:32:46.721Z,12.59
2024-03-11T16:35:14.433Z,12.56
2024-03-11T16:37:42.644Z,12.54
2024-03-11T16:40:15.428Z,12.50
2024-03-11T16:42:43.172Z,12.46
2024-03-11T16:45:12.455Z,12.47
2024-03-11T16:47:41.504Z,12.47
2024-03-11T16:50:13.073Z,12.43
2024-03-11T16:52:40.618Z,12.43
2024-03-11T16:55:15.558Z,12.38
2024-03-11T16:57:46.434Z,12.23
2024-03-11T17:00:21.829Z,12.31
2024-03-11T17:02:54.340Z,12.27
2024-03-11T17:05:24.575Z,12.22
2024-03-11T17:07:55.822Z,12.18
2024-03-11T17:10:33.353Z,12.16
2024-03-11T17:13:07.971Z,12.17
2024-03-11T17:15:36.470Z,12.15
2024-03-11T17:18:07.809Z,11.95
2024-03-11T17:20:43.156Z,12.13
2024-03-11T17:23:17.525Z,12.21
2024-03-11T17:25:45.936Z,12.18
2024-03-11T17:28:17.237Z,12.20
2024-03-11T17:30:52.289Z,12.14
2024-03-11T17:33:21.699Z,12.03
2024-03-11T17:35:55.499Z,11.74
2024-03-11T17:38:23.659Z,11.84
2024-03-11T17:40:53.797Z,11.92
2024-03-11T17:43:21.450Z,11.97
2024-03-11T17:45:50.624Z,11.99
2024-03-11T17:48:23.387Z,12.00
2024-03-11T17:50:51.836Z,11.99
2024-03-11T17:53:19.090Z,11.98
2024-03-11T17:55:46.299Z,11.97
2024-03-11T17:58:15.923Z,11.96
2024-03-11T18:00:43.686Z,11.93
2024-03-11T18:03:11.365Z,11.90
2024-03-11T18:05:38.762Z,11.80
2024-03-11T18:08:08.011Z,11.74
2024-03-11T18:10:42.007Z,11.77
2024-03-11T18:13:14.771Z,11.70
2024-03-11T18:15:42.962Z,11.74
2024-03-11T18:18:17.290Z,11.73
2024-03-11T18:20:45.690Z,11.61
2024-03-11T18:23:14.069Z,11.60
2024-03-11T18:25:41.817Z,11.52
2024-03-11T18:28:09.719Z,11.52
2024-03-11T18:30:37.303Z,11.43
2024-03-11T18:33:06.538Z,11.32
2024-03-11T18:35:37.006Z,11.41
2024-03-11T18:38:06.465Z,11.28
2024-03-11T18:40:34.622Z,11.35
2024-03-11T18:43:02.326Z,11.28
2024-03-11T18:45:30.763Z,11.24
2024-03-11T18:47:57.892Z,11.24
2024-03-11T18:50:25.604Z,11.24
2024-03-11T18:53:00.032Z,11.15
2024-03-11T18:55:32.433Z,11.11
2024-03-11T18:58:00.585Z,11.10
2024-03-11T19:00:29.367Z,11.05
2024-03-11T19:03:01.361Z,11.07
2024-03-11T19:05:29.493Z,10.93
2024-03-11T19:07:57.194Z,10.93
2024-03-11T19:10:26.921Z,10.92
2024-03-11T19:12:54.989Z,10.88
2024-03-11T19:15:25.883Z,10.84
2024-03-11T19:17:53.497Z,10.58
2024-03-11T19:20:26.254Z,10.72
2024-03-11T19:22:54.257Z,10.69
2024-03-11T19:25:25.544Z,10.66
2024-03-11T19:27:54.199Z,10.61
2024-03-11T19:30:23.824Z,10.59
2024-03-11T19:32:54.342Z,10.45
2024-03-11T19:35:22.906Z,10.41
2024-03-11T19:38:15.239Z,10.50
2024-03-11T19:40:45.141Z,10.44
2024-03-11T19:43:44.051Z,10.18
2024-03-11T19:46:32.054Z,10.33
2024-03-11T19:49:25.271Z,10.33
2024-03-11T19:52:06.864Z,10.30
2024-03-11T19:55:11.892Z,10.27
2024-03-11T19:58:50.866Z,10.23
2024-03-11T20:01:51.584Z,10.22
2024-03-11T20:05:11.106Z,10.18
2024-03-11T20:08:40.204Z,10.18
2024-03-11T20:11:38.203Z,10.14
2024-03-11T20:14:45.825Z,10.12
2024-03-11T20:18:00.912Z,10.10
2024-03-11T20:20:59.397Z,10.11
2024-03-11T20:24:15.127Z,10.11
2024-03-11T20:26:56.654Z,10.07
2024-03-11T20:29:31.858Z,10.07
2024-03-11T20:32:03.560Z,10.07
2024-03-11T20:34:31.145Z,10.07
2024-03-11T20:36:58.814Z,10.05
2024-03-11T20:39:25.986Z,10.02
2024-03-11T20:41:55.361Z,10.02
2024-03-11T20:44:22.549Z,9.96
2024-03-11T20:46:49.573Z,9.94
2024-03-11T20:49:18.062Z,9.92
2024-03-11T20:51:45.007Z,9.93
2024-03-11T20:54:11.884Z,9.91
2024-03-11T20:56:39.243Z,9.89
2024-03-11T20:59:06.406Z,9.89
2024-03-11T21:01:34.059Z,9.85
2024-03-11T21:04:01.281Z,9.88
2024-03-11T21:06:28.502Z,9.86
2024-03-11T21:08:55.392Z,9.84
2024-03-11T21:11:23.159Z,9.86
2024-03-11T21:13:50.095Z,9.81
2024-03-11T21:16:19.215Z,9.85
2024-03-11T21:18:48.272Z,9.86
2024-03-11T21:21:24.278Z,9.76
2024-03-11T21:24:07.666Z,9.81
2024-03-11T21:26:41.015Z,9.82
2024-03-11T21:29:09.531Z,9.82
2024-03-11T21:31:37.976Z,9.80
2024-03-11T21:34:06.612Z,9.81
2024-03-11T21:36:34.831Z,9.83
2024-03-11T21:39:01.795Z,9.74
2024-03-11T21:41:28.644Z,9.78
2024-03-11T21:43:55.508Z,9.82
2024-03-11T21:46:25.435Z,9.80
2024-03-11T21:48:52.880Z,9.82
2024-03-11T21:51:25.543Z,9.74
2024-03-11T21:53:53.894Z,9.80
2024-03-11T21:56:20.777Z,9.37
2024-03-11T21:58:47.633Z,9.54
2024-03-11T22:01:15.279Z,9.63
2024-03-11T22:03:42.896Z,9.65
2024-03-11T22:06:09.837Z,9.68
2024-03-11T22:08:38.838Z,9.69
2024-03-11T22:11:06.975Z,9.60
2024-03-11T22:13:33.980Z,9.68
2024-03-11T22:16:01.076Z,9.66
2024-03-11T22:18:28.008Z,9.71
2024-03-11T22:20:54.988Z,9.68
2024-03-11T22:23:22.567Z,9.63
2024-03-11T22:25:49.563Z,9.36
2024-03-11T22:28:19.043Z,9.67
2024-03-11T22:30:45.960Z,9.65
2024-03-11T22:33:14.086Z,9.65
2024-03-11T22:35:41.013Z,9.56
2024-03-11T22:38:08.486Z,9.63
2024-03-11T22:40:35.382Z,9.65
2024-03-11T22:43:02.355Z,9.58
2024-03-11T22:45:30.220Z,9.60
2024-03-11T22:47:58.274Z,9.64
2024-03-11T22:50:25.228Z,9.60
2024-03-11T22:52:52.377Z,9.63
2024-03-11T22:55:19.341Z,9.68
2024-03-11T22:57:46.964Z,9.69
2024-03-11T23:00:34.153Z,9.67
2024-03-11T23:03:01.108Z,9.66
2024-03-11T23:05:28.023Z,9.65
2024-03-11T23:07:54.901Z,9.65
2024-03-11T23:10:27.636Z,9.66
2024-03-11T23:12:55.807Z,9.67
2024-03-11T23:15:24.102Z,9.67
2024-03-11T23:17:55.536Z,9.69
2024-03-11T23:20:24.114Z,9.67
2024-03-11T23:22:51.761Z,9.43
2024-03-11T23:25:23.085Z,9.65
2024-03-11T23:27:58.463Z,9.66
2024-03-11T23:30:28.874Z,9.56
2024-03-11T23:32:59.827Z,9.63
2024-03-11T23:35:29.307Z,9.60
2024-03-11T23:37:58.735Z,9.62
2024-03-11T23:40:25.701Z,9.63
2024-03-11T23:42:53.284Z,9.64
2024-03-11T23:45:23.657Z,9.60
2024-03-11T23:47:51.720Z,9.58
2024-03-11T23:50:21.771Z,9.59
2024-03-11T23:52:50.192Z,9.45
2024-03-11T23:55:21.046Z,9.61
2024-03-11T23:57:48.589Z,9.59
